createdAt,value
2023-07-05T00:00:01.163Z,15.00
2023-07-05T00:02:29.201Z,15.00
2023-07-05T00:04:57.019Z,15.00
2023-07-05T00:07:24.582Z,15.00
2023-07-05T00:09:52.330Z,14.90
2023-07-05T00:12:21.515Z,14.90
2023-07-05T00:14:49.896Z,14.90
2023-07-05T00:17:17.377Z,14.90
2023-07-05T00:19:49.754Z,14.90
2023-07-05T00:22:17.495Z,14.80
2023-07-05T00:24:45.115Z,14.80
2023-07-05T00:27:14.574Z,14.70
2023-07-05T00:29:42.598Z,14.80
2023-07-05T00:32:10.346Z,14.80
2023-07-05T00:34:37.962Z,14.80
2023-07-05T00:37:05.871Z,14.80
2023-07-05T00:39:33.946Z,14.80
2023-07-05T00:42:02.749Z,14.80
2023-07-05T00:44:31.364Z,14.80
2023-07-05T00:47:24.751Z,14.70
2023-07-05T00:49:52.494Z,14.70
2023-07-05T00:52:20.298Z,14.70
2023-07-05T00:54:52.427Z,14.70
2023-07-05T00:57:23.654Z,14.70
2023-07-05T01:00:00.044Z,14.70
2023-07-05T01:02:28.529Z,14.70
2023-07-05T01:04:56.236Z,14.70
2023-07-05T01:07:24.562Z,14.70
2023-07-05T01:09:52.238Z,14.70
2023-07-05T01:12:42.534Z,14.70
2023-07-05T01:15:17.453Z,14.70
2023-07-05T01:17:58.292Z,14.70
2023-07-05T01:20:40.972Z,14.70
2023-07-05T01:23:40.098Z,14.60
2023-07-05T01:26:13.727Z,14.70
2023-07-05T01:28:47.253Z,14.70
2023-07-05T01:31:34.055Z,14.70
2023-07-05T01:34:29.863Z,14.70
2023-07-05T01:36:58.590Z,14.70
2023-07-05T01:39:26.909Z,14.70
2023-07-05T01:41:55.088Z,14.70
2023-07-05T01:44:22.746Z,14.70
2023-07-05T01:47:07.100Z,14.70
2023-07-05T01:49:54.697Z,14.70
2023-07-05T01:52:29.970Z,14.70
2023-07-05T01:55:05.836Z,14.70
2023-07-05T01:57:40.694Z,14.70
2023-07-05T02:00:13.089Z,14.60
2023-07-05T02:02:46.531Z,14.70
2023-07-05T02:05:16.887Z,14.60
2023-07-05T02:07:46.128Z,14.60
2023-07-05T02:10:15.202Z,14.60
2023-07-05T02:12:45.103Z,14.60
2023-07-05T02:15:13.454Z,14.50
2023-07-05T02:17:41.590Z,14.50
2023-07-05T02:20:09.429Z,14.50
2023-07-05T02:22:37.643Z,14.50
2023-07-05T02:25:05.741Z,14.50
2023-07-05T02:27:33.309Z,14.40
2023-07-05T02:30:01.527Z,14.40
2023-07-05T02:32:28.945Z,14.40
2023-07-05T02:35:01.452Z,14.40
2023-07-05T02:37:29.000Z,14.30
2023-07-05T02:39:57.064Z,14.30
2023-07-05T02:42:25.986Z,14.30
2023-07-05T02:44:53.744Z,14.30
2023-07-05T02:47:22.043Z,14.30
2023-07-05T02:49:49.812Z,14.20
2023-07-05T02:52:17.634Z,14.20
2023-07-05T02:54:45.230Z,14.20
2023-07-05T02:57:12.697Z,14.20
2023-07-05T02:59:40.126Z,14.10
2023-07-05T03:02:07.709Z,14.10
2023-07-05T03:04:35.372Z,14.00
2023-07-05T03:07:05.136Z,13.90
2023-07-05T03:09:33.056Z,13.90
2023-07-05T03:12:01.006Z,13.80
2023-07-05T03:14:28.573Z,13.80
2023-07-05T03:16:56.097Z,13.70
2023-07-05T03:19:23.616Z,13.70
2023-07-05T03:21:51.408Z,13.70
2023-07-05T03:24:19.216Z,13.60
2023-07-05T03:26:47.041Z,13.60
2023-07-05T03:29:15.289Z,13.50
2023-07-05T03:31:43.129Z,13.50
2023-07-05T03:34:11.400Z,13.50
2023-07-05T03:36:39.188Z,13.40
2023-07-05T03:39:06.790Z,13.40
2023-07-05T03:41:34.455Z,13.40
2023-07-05T03:44:02.134Z,13.30
2023-07-05T03:46:30.627Z,13.30
2023-07-05T03:48:58.281Z,13.30
2023-07-05T03:51:26.558Z,13.20
2023-07-05T03:53:56.572Z,13.20
2023-07-05T03:56:25.381Z,13.20
2023-07-05T03:58:53.048Z,13.10
2023-07-05T04:01:26.024Z,13.10
2023-07-05T04:03:59.694Z,13.10
2023-07-05T04:06:30.289Z,13.10
2023-07-05T04:08:58.334Z,13.10
2023-07-05T04:11:26.323Z,13.10
2023-07-05T04:13:56.272Z,13.10
2023-07-05T04:16:26.771Z,13.10
2023-07-05T04:18:56.468Z,13.10
2023-07-05T04:21:25.720Z,13.00
2023-07-05T04:23:53.952Z,13.10
2023-07-05T04:26:25.323Z,13.00
2023-07-05T04:28:52.872Z,13.00
2023-07-05T04:31:25.457Z,13.00
2023-07-05T04:33:53.228Z,12.90
2023-07-05T04:36:26.989Z,13.00
2023-07-05T04:38:57.863Z,13.00
2023-07-05T04:41:26.038Z,13.00
2023-07-05T04:43:54.057Z,13.00
2023-07-05T04:46:22.326Z,13.00
2023-07-05T04:48:50.366Z,13.00
2023-07-05T04:51:18.645Z,13.00
2023-07-05T04:53:46.447Z,13.00
2023-07-05T04:56:15.901Z,13.10
2023-07-05T04:58:44.085Z,13.10
2023-07-05T05:01:15.081Z,13.10
2023-07-05T05:03:43.494Z,13.10
2023-07-05T05:06:11.658Z,13.20
2023-07-05T05:08:39.588Z,13.20
2023-07-05T05:11:07.607Z,13.20
2023-07-05T05:13:36.594Z,13.20
2023-07-05T05:16:05.405Z,13.30
2023-07-05T05:18:34.391Z,13.30
2023-07-05T05:21:02.248Z,13.30
2023-07-05T05:23:31.157Z,13.30
2023-07-05T05:25:59.197Z,13.40
2023-07-05T05:28:26.932Z,13.40
2023-07-05T05:31:06.126Z,13.40
2023-07-05T05:33:33.871Z,13.50
2023-07-05T05:36:02.135Z,13.50
2023-07-05T05:38:30.001Z,13.50
2023-07-05T05:41:02.946Z,13.50
2023-07-05T05:43:30.818Z,13.60
2023-07-05T05:45:58.324Z,13.60
2023-07-05T05:48:26.594Z,13.70
2023-07-05T05:50:54.288Z,13.70
2023-07-05T05:53:21.993Z,13.70
2023-07-05T05:55:49.702Z,13.80
2023-07-05T05:58:17.464Z,13.70
2023-07-05T06:00:47.815Z,13.80
2023-07-05T06:03:15.828Z,13.90
2023-07-05T06:05:43.583Z,13.90
2023-07-05T06:08:11.500Z,13.90
2023-07-05T06:10:39.785Z,14.00
2023-07-05T06:13:07.440Z,14.00
2023-07-05T06:15:35.741Z,14.10
2023-07-05T06:18:03.504Z,14.10
2023-07-05T06:20:34.680Z,14.10
2023-07-05T06:23:04.368Z,14.20
2023-07-05T06:25:32.004Z,14.20
2023-07-05T06:27:59.672Z,14.20
2023-07-05T06:30:27.205Z,14.30
2023-07-05T06:32:56.312Z,14.30
2023-07-05T06:35:23.860Z,14.40
2023-07-05T06:37:51.372Z,14.40
2023-07-05T06:40:18.976Z,14.50
2023-07-05T06:42:46.403Z,14.50
2023-07-05T06:45:17.485Z,14.60
2023-07-05T06:47:47.231Z,14.60
2023-07-05T06:50:15.578Z,14.60
2023-07-05T06:52:43.352Z,14.60
2023-07-05T06:55:12.443Z,14.70
2023-07-05T06:57:40.180Z,14.70
2023-07-05T07:00:10.254Z,14.80
2023-07-05T07:02:37.969Z,14.80
2023-07-05T07:05:06.100Z,14.90
2023-07-05T07:07:33.623Z,14.90
2023-07-05T07:10:02.826Z,15.00
2023-07-05T07:12:30.646Z,15.10
2023-07-05T07:14:58.383Z,15.20
2023-07-05T07:17:26.152Z,15.30
2023-07-05T07:19:53.594Z,15.40
2023-07-05T07:22:21.320Z,15.40
2023-07-05T07:24:51.875Z,15.50
2023-07-05T07:27:20.297Z,15.60
2023-07-05T07:29:47.799Z,15.70
2023-07-05T07:32:15.505Z,15.80
2023-07-05T07:34:43.764Z,15.80
2023-07-05T07:37:11.477Z,15.90
2023-07-05T07:39:39.232Z,16.00
2023-07-05T07:42:07.366Z,16.00
2023-07-05T07:44:35.241Z,16.10
2023-07-05T07:47:03.106Z,16.10
2023-07-05T07:49:30.696Z,16.10
2023-07-05T07:51:58.197Z,16.10
2023-07-05T07:54:27.675Z,16.10
2023-07-05T07:56:57.083Z,16.20
2023-07-05T07:59:25.199Z,16.20
2023-07-05T08:01:52.822Z,16.30
2023-07-05T08:04:20.910Z,16.30
2023-07-05T08:06:51.597Z,16.30
2023-07-05T08:09:27.881Z,16.40
2023-07-05T08:11:56.853Z,16.50
2023-07-05T08:14:25.184Z,16.60
2023-07-05T08:16:52.901Z,16.70
2023-07-05T08:19:22.217Z,16.80
2023-07-05T08:21:50.404Z,16.90
2023-07-05T08:26:49.424Z,17.10
2023-07-05T08:29:17.026Z,17.20
2023-07-05T08:31:47.908Z,17.30
2023-07-05T08:34:16.246Z,17.30
2023-07-05T08:36:44.259Z,17.40
2023-07-05T08:39:14.216Z,17.50
2023-07-05T08:41:42.563Z,17.50
2023-07-05T08:44:10.248Z,17.60
2023-07-05T08:46:40.201Z,17.60
2023-07-05T08:49:24.282Z,17.70
2023-07-05T08:51:52.438Z,17.80
2023-07-05T08:54:20.636Z,17.80
2023-07-05T08:56:52.381Z,17.80
2023-07-05T08:59:30.399Z,17.90
2023-07-05T09:02:01.105Z,17.90
2023-07-05T09:04:34.981Z,18.00
2023-07-05T09:07:28.992Z,18.00
2023-07-05T09:10:09.368Z,18.10
2023-07-05T09:12:40.621Z,18.20
2023-07-05T09:15:15.200Z,18.30
2023-07-05T09:18:01.382Z,18.40
2023-07-05T09:20:54.637Z,18.40
2023-07-05T09:23:40.557Z,18.50
2023-07-05T09:26:24.812Z,18.50
2023-07-05T09:29:14.323Z,18.60
2023-07-05T09:31:44.954Z,18.60
2023-07-05T09:34:27.421Z,18.50
2023-07-05T09:36:55.438Z,18.60
2023-07-05T09:39:29.944Z,18.60
2023-07-05T09:42:01.197Z,18.60
2023-07-05T09:44:29.147Z,18.60
2023-07-05T09:46:57.551Z,18.70
2023-07-05T09:49:29.237Z,18.80
2023-07-05T09:51:59.118Z,18.80
2023-07-05T09:54:31.945Z,18.90
2023-07-05T09:57:05.611Z,18.90
2023-07-05T09:59:35.131Z,19.00
2023-07-05T10:02:13.883Z,19.10
2023-07-05T10:05:14.764Z,19.30
2023-07-05T10:08:05.758Z,19.40
2023-07-05T10:10:38.566Z,19.40
2023-07-05T10:13:23.308Z,19.40
2023-07-05T10:15:52.722Z,19.50
2023-07-05T10:18:31.690Z,19.50
2023-07-05T10:21:03.379Z,19.50
2023-07-05T10:23:34.114Z,19.60
2023-07-05T10:26:06.417Z,19.60
2023-07-05T10:28:38.414Z,19.70
2023-07-05T10:31:06.456Z,19.70
2023-07-05T10:33:39.365Z,19.80
2023-07-05T10:36:16.911Z,20.00
2023-07-05T10:38:47.971Z,20.10
2023-07-05T10:41:21.575Z,20.20
2023-07-05T10:43:56.996Z,20.40
2023-07-05T10:46:26.376Z,20.50
2023-07-05T10:48:54.713Z,20.70
2023-07-05T10:51:29.070Z,20.80
2023-07-05T10:54:21.991Z,20.90
2023-07-05T10:56:50.337Z,21.00
2023-07-05T10:59:33.626Z,21.00
2023-07-05T11:02:17.517Z,21.00
2023-07-05T11:04:48.904Z,21.20
2023-07-05T11:07:19.196Z,21.30
2023-07-05T11:09:47.003Z,21.40
2023-07-05T11:12:24.612Z,21.50
2023-07-05T11:14:53.774Z,21.60
2023-07-05T11:17:34.407Z,21.70
2023-07-05T11:20:02.960Z,21.90
2023-07-05T11:22:46.744Z,22.10
2023-07-05T11:25:18.279Z,22.20
2023-07-05T11:27:58.006Z,22.30
2023-07-05T11:30:44.411Z,22.40
2023-07-05T11:33:12.058Z,22.40
2023-07-05T11:35:56.208Z,22.30
2023-07-05T11:38:41.800Z,22.30
2023-07-05T11:41:11.272Z,22.30
2023-07-05T11:43:54.905Z,22.20
2023-07-05T11:46:40.614Z,22.10
2023-07-05T11:49:27.539Z,22.10
2023-07-05T11:52:36.072Z,22.20
2023-07-05T11:55:42.383Z,22.40
2023-07-05T11:58:31.311Z,22.70
2023-07-05T12:01:04.850Z,22.90
2023-07-05T12:03:41.063Z,23.30
2023-07-05T12:06:11.337Z,23.60
2023-07-05T12:08:46.446Z,23.90
2023-07-05T12:11:17.758Z,24.20
2023-07-05T12:13:45.431Z,24.50
2023-07-05T12:16:19.730Z,24.80
2023-07-05T12:18:48.768Z,25.00
2023-07-05T12:21:17.319Z,25.40
2023-07-05T12:23:46.734Z,25.60
2023-07-05T12:26:35.505Z,25.80
2023-07-05T12:29:21.593Z,25.90
2023-07-05T12:31:49.160Z,25.80
2023-07-05T12:34:22.765Z,25.70
2023-07-05T12:36:50.251Z,25.70
2023-07-05T12:39:18.682Z,25.50
2023-07-05T12:42:03.977Z,25.30
2023-07-05T12:44:35.075Z,24.90
2023-07-05T12:47:32.020Z,24.60
2023-07-05T12:50:08.247Z,24.20
2023-07-05T12:52:35.742Z,23.90
2023-07-05T12:55:03.419Z,23.60
2023-07-05T12:57:34.196Z,23.30
2023-07-05T13:00:06.561Z,23.20
2023-07-05T13:02:35.078Z,23.00
2023-07-05T13:05:04.997Z,22.80
2023-07-05T13:07:34.098Z,22.70
2023-07-05T13:10:08.112Z,22.60
2023-07-05T13:12:51.331Z,22.50
2023-07-05T13:15:18.880Z,22.50
2023-07-05T13:17:47.167Z,22.50
2023-07-05T13:20:21.446Z,22.60
2023-07-05T13:22:53.377Z,22.60
2023-07-05T13:25:46.018Z,22.60
2023-07-05T13:28:26.056Z,22.50
2023-07-05T13:30:55.889Z,22.50
2023-07-05T13:33:25.076Z,22.50
2023-07-05T13:35:53.226Z,22.40
2023-07-05T13:38:22.651Z,22.30
2023-07-05T13:41:04.209Z,22.40
2023-07-05T13:43:32.689Z,22.40
2023-07-05T13:46:03.695Z,22.40
2023-07-05T13:48:31.558Z,22.50
2023-07-05T13:50:59.285Z,22.40
2023-07-05T13:53:29.877Z,22.40
2023-07-05T13:55:57.272Z,22.40
2023-07-05T13:58:25.961Z,22.30
2023-07-05T14:00:54.802Z,22.30
2023-07-05T14:03:24.973Z,22.20
2023-07-05T14:05:59.952Z,22.20
2023-07-05T14:08:28.138Z,22.20
2023-07-05T14:10:56.426Z,22.20
2023-07-05T14:13:26.147Z,22.30
2023-07-05T14:15:53.868Z,22.60
2023-07-05T14:18:21.573Z,22.80
2023-07-05T14:20:50.422Z,23.00
2023-07-05T14:23:18.930Z,23.20
2023-07-05T14:25:50.143Z,23.40
2023-07-05T14:28:18.548Z,23.70
2023-07-05T14:30:49.856Z,24.10
2023-07-05T14:33:20.578Z,24.40
2023-07-05T14:35:48.272Z,24.80
2023-07-05T14:38:15.936Z,25.10
2023-07-05T14:40:45.935Z,25.40
2023-07-05T14:43:14.244Z,25.80
2023-07-05T14:45:43.838Z,26.20
2023-07-05T14:48:12.031Z,26.60
2023-07-05T14:50:39.821Z,27.00
2023-07-05T14:53:14.104Z,27.20
2023-07-05T14:55:41.763Z,27.50
2023-07-05T14:58:15.660Z,27.70
2023-07-05T15:00:45.759Z,28.00
2023-07-05T15:03:28.656Z,28.10
2023-07-05T15:05:58.591Z,28.10
2023-07-05T15:08:27.615Z,28.20
2023-07-05T15:10:56.181Z,28.30
2023-07-05T15:13:32.795Z,28.50
2023-07-05T15:16:05.738Z,28.50
2023-07-05T15:18:33.490Z,28.40
2023-07-05T15:21:02.582Z,28.30
2023-07-05T15:23:30.360Z,28.20
2023-07-05T15:25:58.606Z,28.10
2023-07-05T15:28:26.070Z,28.00
2023-07-05T15:30:53.943Z,27.80
2023-07-05T15:33:22.100Z,27.60
2023-07-05T15:35:52.188Z,27.40
2023-07-05T15:38:19.748Z,27.20
2023-07-05T15:40:47.362Z,27.00
2023-07-05T15:43:16.839Z,26.70
2023-07-05T15:45:48.243Z,26.50
2023-07-05T15:48:16.125Z,26.20
2023-07-05T15:50:43.948Z,25.90
2023-07-05T15:53:11.495Z,25.60
2023-07-05T15:55:40.674Z,25.30
2023-07-05T15:58:09.091Z,25.10
2023-07-05T16:00:38.885Z,24.90
2023-07-05T16:03:09.886Z,24.80
2023-07-05T16:05:41.094Z,24.80
2023-07-05T16:08:09.851Z,24.80
2023-07-05T16:10:42.641Z,24.80
2023-07-05T16:13:12.385Z,24.90
2023-07-05T16:15:40.781Z,25.10
2023-07-05T16:18:09.698Z,25.10
2023-07-05T16:20:38.377Z,25.10
2023-07-05T16:23:06.368Z,25.20
2023-07-05T16:25:34.118Z,25.10
2023-07-05T16:28:01.654Z,25.10
2023-07-05T16:30:29.151Z,25.10
2023-07-05T16:32:56.686Z,25.10
2023-07-05T16:35:24.304Z,24.90
2023-07-05T16:37:52.779Z,24.80
2023-07-05T16:40:20.436Z,24.60
2023-07-05T16:42:50.262Z,24.50
2023-07-05T16:45:17.956Z,24.30
2023-07-05T16:47:45.965Z,24.30
2023-07-05T16:50:16.546Z,24.10
2023-07-05T16:52:44.633Z,24.10
2023-07-05T16:55:12.466Z,24.30
2023-07-05T16:57:40.160Z,24.40
2023-07-05T17:00:09.670Z,24.60
2023-07-05T17:02:38.848Z,24.80
2023-07-05T17:05:07.471Z,24.90
2023-07-05T17:07:35.971Z,24.90
2023-07-05T17:10:04.195Z,25.00
2023-07-05T17:12:32.803Z,24.90
2023-07-05T17:15:00.685Z,24.90
2023-07-05T17:17:32.406Z,24.90
2023-07-05T17:20:03.016Z,24.90
2023-07-05T17:22:36.452Z,24.90
2023-07-05T17:25:04.607Z,24.70
2023-07-05T17:27:32.325Z,24.60
2023-07-05T17:30:00.295Z,24.40
2023-07-05T17:32:29.069Z,24.30
2023-07-05T17:34:56.910Z,24.20
2023-07-05T17:37:24.736Z,24.10
2023-07-05T17:39:53.685Z,24.10
2023-07-05T17:42:21.495Z,24.00
2023-07-05T17:44:49.418Z,23.90
2023-07-05T17:47:17.154Z,23.90
2023-07-05T17:49:45.769Z,23.90
2023-07-05T17:52:13.339Z,23.80
2023-07-05T17:54:41.142Z,23.70
2023-07-05T17:57:08.694Z,23.60
2023-07-05T17:59:37.648Z,23.50
2023-07-05T18:02:05.495Z,23.40
2023-07-05T18:04:33.447Z,23.30
2023-07-05T18:07:01.259Z,23.10
2023-07-05T18:09:29.396Z,23.10
2023-07-05T18:11:57.273Z,23.00
2023-07-05T18:14:24.838Z,22.90
2023-07-05T18:16:52.475Z,22.80
2023-07-05T18:19:20.023Z,22.70
2023-07-05T18:21:48.069Z,22.60
2023-07-05T18:24:15.688Z,22.50
2023-07-05T18:26:43.545Z,22.40
2023-07-05T18:29:11.866Z,22.30
2023-07-05T18:31:41.649Z,22.10
2023-07-05T18:34:09.398Z,22.00
2023-07-05T18:36:36.963Z,21.90
2023-07-05T18:39:04.687Z,21.80
2023-07-05T18:41:33.119Z,21.80
2023-07-05T18:44:00.853Z,21.60
2023-07-05T18:46:28.699Z,21.50
2023-07-05T18:48:56.499Z,21.50
2023-07-05T18:51:24.970Z,21.40
2023-07-05T18:53:53.138Z,21.30
2023-07-05T18:56:21.072Z,21.20
2023-07-05T18:58:49.817Z,21.10
2023-07-05T19:01:20.275Z,21.00
2023-07-05T19:03:49.707Z,20.90
2023-07-05T19:06:20.651Z,20.80
2023-07-05T19:08:48.713Z,20.70
2023-07-05T19:11:22.563Z,20.60
2023-07-05T19:13:50.297Z,20.50
2023-07-05T19:16:20.023Z,20.50
2023-07-05T19:18:48.911Z,20.40
2023-07-05T19:21:17.593Z,20.40
2023-07-05T19:23:49.953Z,20.30
2023-07-05T19:26:19.483Z,20.20
2023-07-05T19:28:48.559Z,20.10
2023-07-05T19:31:19.144Z,20.10
2023-07-05T19:33:47.964Z,20.00
2023-07-05T19:36:15.593Z,19.90
2023-07-05T19:38:43.143Z,19.90
2023-07-05T19:41:10.669Z,19.80
2023-07-05T19:43:38.095Z,19.80
2023-07-05T19:46:07.884Z,19.70
2023-07-05T19:48:35.891Z,19.70
2023-07-05T19:51:08.436Z,19.60
2023-07-05T19:53:36.612Z,19.60
2023-07-05T19:56:05.589Z,19.50
2023-07-05T19:58:33.987Z,19.50
2023-07-05T20:01:02.588Z,19.50
2023-07-05T20:03:30.720Z,19.40
2023-07-05T20:05:58.896Z,19.30
2023-07-05T20:08:27.326Z,19.30
2023-07-05T20:10:55.032Z,19.20
2023-07-05T20:13:22.760Z,19.20
2023-07-05T20:15:58.433Z,19.10
2023-07-05T20:18:26.933Z,19.10
2023-07-05T20:21:00.712Z,19.00
2023-07-05T20:23:36.763Z,18.90
2023-07-05T20:26:04.509Z,18.90
2023-07-05T20:28:32.528Z,18.90
2023-07-05T20:31:00.439Z,18.90
2023-07-05T20:33:30.377Z,18.80
2023-07-05T20:36:02.690Z,18.80
2023-07-05T20:38:31.999Z,18.80
2023-07-05T20:41:02.862Z,18.70
2023-07-05T20:43:30.499Z,18.70
2023-07-05T20:46:02.591Z,18.60
2023-07-05T20:48:30.635Z,18.60
2023-07-05T20:51:06.351Z,18.60
2023-07-05T20:53:34.943Z,18.60
2023-07-05T20:56:03.616Z,18.60
2023-07-05T20:58:36.662Z,18.50
2023-07-05T21:01:09.957Z,18.50
2023-07-05T21:03:38.690Z,18.40
2023-07-05T21:06:06.471Z,18.40
2023-07-05T21:08:36.798Z,18.40
2023-07-05T21:11:07.079Z,18.40
2023-07-05T21:13:35.553Z,18.30
2023-07-05T21:16:08.355Z,18.20
2023-07-05T21:18:36.835Z,18.20
2023-07-05T21:21:05.283Z,18.20
2023-07-05T21:23:34.508Z,18.10
2023-07-05T21:26:04.351Z,18.10
2023-07-05T21:28:32.302Z,18.10
2023-07-05T21:31:02.275Z,18.00
2023-07-05T21:33:31.507Z,18.00
2023-07-05T21:36:00.017Z,18.00
2023-07-05T21:38:29.246Z,18.00
2023-07-05T21:41:00.158Z,17.90
2023-07-05T21:43:28.004Z,17.90
2023-07-05T21:45:56.012Z,17.80
2023-07-05T21:48:29.881Z,17.80
2023-07-05T21:50:59.302Z,17.80
2023-07-05T21:53:27.861Z,17.70
2023-07-05T21:56:03.294Z,17.70
2023-07-05T21:58:33.702Z,17.70
2023-07-05T22:01:02.543Z,17.60
2023-07-05T22:03:30.946Z,17.60
2023-07-05T22:05:59.829Z,17.60
2023-07-05T22:08:27.664Z,17.60
2023-07-05T22:10:55.863Z,17.60
2023-07-05T22:13:25.411Z,17.50
2023-07-05T22:15:54.025Z,17.50
2023-07-05T22:18:22.519Z,17.40
2023-07-05T22:20:50.604Z,17.40
2023-07-05T22:23:18.611Z,17.40
2023-07-05T22:25:46.154Z,17.30
2023-07-05T22:28:13.745Z,17.30
2023-07-05T22:30:41.505Z,17.30
2023-07-05T22:33:09.041Z,17.20
2023-07-05T22:35:36.687Z,17.20
2023-07-05T22:38:06.984Z,17.20
2023-07-05T22:40:37.935Z,17.20
2023-07-05T22:43:06.540Z,17.10
2023-07-05T22:45:34.529Z,17.10
2023-07-05T22:48:02.122Z,17.00
2023-07-05T22:50:30.220Z,17.00
2023-07-05T22:52:59.361Z,17.00
2023-07-05T22:55:27.012Z,16.90
2023-07-05T22:57:55.630Z,16.90
2023-07-05T23:00:23.551Z,16.90
2023-07-05T23:02:52.952Z,16.90
2023-07-05T23:05:22.746Z,16.80
2023-07-05T23:07:50.965Z,16.80
2023-07-05T23:10:18.814Z,16.80
2023-07-05T23:12:46.340Z,16.80
2023-07-05T23:15:14.126Z,16.70
2023-07-05T23:17:41.902Z,16.70
2023-07-05T23:20:12.191Z,16.70
2023-07-05T23:22:41.714Z,16.60
2023-07-05T23:25:10.821Z,16.60
2023-07-05T23:27:41.747Z,16.50
2023-07-05T23:30:10.755Z,16.50
2023-07-05T23:32:39.564Z,16.50
2023-07-05T23:35:08.985Z,16.50
2023-07-05T23:37:36.553Z,16.40
2023-07-05T23:40:09.764Z,16.40
2023-07-05T23:42:38.357Z,16.40
2023-07-05T23:45:07.327Z,16.30
2023-07-05T23:47:37.235Z,16.30
2023-07-05T23:50:08.279Z,16.30
2023-07-05T23:52:35.719Z,16.30
2023-07-05T23:55:04.314Z,16.20
2023-07-05T23:57:31.989Z,16.10
2023-07-05T23:59:59.580Z,16.10
